sensor_id;sensor_type;location;lat;lon;timestamp;P1;durP1;ratioP1;P2;durP2;ratioP2
31676;SDS011;18385;51.572;6.578;2023-11-18T00:01:49;50.05;;;15.45;;
31676;SDS011;18385;51.572;6.578;2023-11-18T00:04:15;47.65;;;14.93;;
31676;SDS011;18385;51.572;6.578;2023-11-18T00:06:41;52.50;;;14.43;;
31676;SDS011;18385;51.572;6.578;2023-11-18T00:09:09;46.88;;;14.88;;
31676;SDS011;18385;51.572;6.578;2023-11-18T00:11:42;51.53;;;15.75;;
31676;SDS011;18385;51.572;6.578;2023-11-18T00:14:09;44.28;;;14.52;;
31676;SDS011;18385;51.572;6.578;2023-11-18T00:19:03;55.15;;;15.98;;
31676;SDS011;18385;51.572;6.578;2023-11-18T00:21:34;50.47;;;17.52;;
31676;SDS011;18385;51.572;6.578;2023-11-18T00:24:01;50.95;;;16.48;;
31676;SDS011;18385;51.572;6.578;2023-11-18T00:26:26;50.80;;;15.10;;
31676;SDS011;18385;51.572;6.578;2023-11-18T00:28:57;51.38;;;16.30;;
31676;SDS011;18385;51.572;6.578;2023-11-18T00:31:24;49.15;;;16.05;;
31676;SDS011;18385;51.572;6.578;2023-11-18T00:33:50;53.03;;;15.52;;
31676;SDS011;18385;51.572;6.578;2023-11-18T00:36:15;52.35;;;17.23;;
31676;SDS011;18385;51.572;6.578;2023-11-18T00:38:41;47.85;;;16.83;;
31676;SDS011;18385;51.572;6.578;2023-11-18T00:41:07;53.03;;;15.85;;
31676;SDS011;18385;51.572;6.578;2023-11-18T00:43:33;59.65;;;17.08;;
31676;SDS011;18385;51.572;6.578;2023-11-18T00:45:58;50.90;;;15.82;;
31676;SDS011;18385;51.572;6.578;2023-11-18T00:48:24;50.60;;;15.27;;
31676;SDS011;18385;51.572;6.578;2023-11-18T00:50:50;52.65;;;17.00;;
31676;SDS011;18385;51.572;6.578;2023-11-18T00:53:17;58.38;;;18.08;;
31676;SDS011;18385;51.572;6.578;2023-11-18T00:55:42;62.13;;;17.55;;
31676;SDS011;18385;51.572;6.578;2023-11-18T00:58:08;55.50;;;17.88;;
31676;SDS011;18385;51.572;6.578;2023-11-18T01:00:34;58.72;;;18.20;;
31676;SDS011;18385;51.572;6.578;2023-11-18T01:03:01;57.08;;;17.48;;
31676;SDS011;18385;51.572;6.578;2023-11-18T01:05:28;54.55;;;16.30;;
31676;SDS011;18385;51.572;6.578;2023-11-18T01:07:56;57.10;;;17.42;;
31676;SDS011;18385;51.572;6.578;2023-11-18T01:10:24;57.45;;;17.48;;
31676;SDS011;18385;51.572;6.578;2023-11-18T01:12:49;58.78;;;17.70;;
31676;SDS011;18385;51.572;6.578;2023-11-18T01:15:15;58.20;;;17.38;;
31676;SDS011;18385;51.572;6.578;2023-11-18T01:17:41;52.67;;;16.63;;
31676;SDS011;18385;51.572;6.578;2023-11-18T01:20:07;56.10;;;16.13;;
31676;SDS011;18385;51.572;6.578;2023-11-18T01:22:36;54.88;;;17.35;;
31676;SDS011;18385;51.572;6.578;2023-11-18T01:25:03;58.50;;;17.00;;
31676;SDS011;18385;51.572;6.578;2023-11-18T01:27:30;53.05;;;17.90;;
31676;SDS011;18385;51.572;6.578;2023-11-18T01:29:55;55.83;;;17.05;;
31676;SDS011;18385;51.572;6.578;2023-11-18T01:32:21;56.58;;;16.50;;
31676;SDS011;18385;51.572;6.578;2023-11-18T01:34:47;54.85;;;15.95;;
31676;SDS011;18385;51.572;6.578;2023-11-18T01:37:15;57.47;;;16.85;;
31676;SDS011;18385;51.572;6.578;2023-11-18T01:39:41;52.78;;;17.08;;
31676;SDS011;18385;51.572;6.578;2023-11-18T01:42:07;62.03;;;17.02;;
31676;SDS011;18385;51.572;6.578;2023-11-18T01:44:33;62.28;;;16.58;;
31676;SDS011;18385;51.572;6.578;2023-11-18T01:47:03;65.93;;;18.27;;
31676;SDS011;18385;51.572;6.578;2023-11-18T01:49:31;58.60;;;17.55;;
31676;SDS011;18385;51.572;6.578;2023-11-18T01:52:02;64.15;;;17.85;;
31676;SDS011;18385;51.572;6.578;2023-11-18T01:54:28;59.13;;;16.13;;
31676;SDS011;18385;51.572;6.578;2023-11-18T01:56:55;68.72;;;17.33;;
31676;SDS011;18385;51.572;6.578;2023-11-18T01:59:21;67.03;;;18.77;;
31676;SDS011;18385;51.572;6.578;2023-11-18T02:01:51;67.78;;;18.52;;
31676;SDS011;18385;51.572;6.578;2023-11-18T02:04:18;54.42;;;15.40;;
31676;SDS011;18385;51.572;6.578;2023-11-18T02:06:46;60.80;;;18.95;;
31676;SDS011;18385;51.572;6.578;2023-11-18T02:09:23;63.92;;;17.23;;
31676;SDS011;18385;51.572;6.578;2023-11-18T02:12:00;57.20;;;16.63;;
31676;SDS011;18385;51.572;6.578;2023-11-18T02:14:41;56.28;;;17.48;;
31676;SDS011;18385;51.572;6.578;2023-11-18T02:17:09;57.00;;;16.83;;
31676;SDS011;18385;51.572;6.578;2023-11-18T02:19:37;59.63;;;15.02;;
31676;SDS011;18385;51.572;6.578;2023-11-18T02:22:05;56.03;;;15.50;;
31676;SDS011;18385;51.572;6.578;2023-11-18T02:24:33;55.95;;;15.05;;
31676;SDS011;18385;51.572;6.578;2023-11-18T02:27:02;56.40;;;14.35;;
31676;SDS011;18385;51.572;6.578;2023-11-18T02:29:34;54.63;;;14.50;;
31676;SDS011;18385;51.572;6.578;2023-11-18T02:32:23;50.55;;;13.98;;
31676;SDS011;18385;51.572;6.578;2023-11-18T02:35:05;46.95;;;14.07;;
31676;SDS011;18385;51.572;6.578;2023-11-18T02:37:42;45.88;;;13.25;;
31676;SDS011;18385;51.572;6.578;2023-11-18T02:40:12;50.47;;;14.02;;
31676;SDS011;18385;51.572;6.578;2023-11-18T02:42:42;52.30;;;14.27;;
31676;SDS011;18385;51.572;6.578;2023-11-18T02:45:10;49.90;;;13.82;;
31676;SDS011;18385;51.572;6.578;2023-11-18T02:47:41;56.00;;;13.82;;
31676;SDS011;18385;51.572;6.578;2023-11-18T02:50:10;52.42;;;13.10;;
31676;SDS011;18385;51.572;6.578;2023-11-18T02:52:37;53.45;;;14.25;;
31676;SDS011;18385;51.572;6.578;2023-11-18T02:55:04;52.47;;;14.32;;
31676;SDS011;18385;51.572;6.578;2023-11-18T02:57:34;61.25;;;14.43;;
31676;SDS011;18385;51.572;6.578;2023-11-18T03:00:00;52.75;;;15.23;;
31676;SDS011;18385;51.572;6.578;2023-11-18T03:02:27;53.55;;;15.98;;
31676;SDS011;18385;51.572;6.578;2023-11-18T03:04:55;49.70;;;13.48;;
31676;SDS011;18385;51.572;6.578;2023-11-18T03:07:24;48.75;;;14.23;;
31676;SDS011;18385;51.572;6.578;2023-11-18T03:09:52;50.47;;;14.02;;
31676;SDS011;18385;51.572;6.578;2023-11-18T03:12:21;50.63;;;14.52;;
31676;SDS011;18385;51.572;6.578;2023-11-18T03:14:47;63.22;;;15.13;;
31676;SDS011;18385;51.572;6.578;2023-11-18T03:17:13;57.40;;;14.40;;
31676;SDS011;18385;51.572;6.578;2023-11-18T03:19:38;61.90;;;14.90;;
31676;SDS011;18385;51.572;6.578;2023-11-18T03:22:04;60.38;;;14.77;;
31676;SDS011;18385;51.572;6.578;2023-11-18T03:24:30;56.58;;;15.65;;
31676;SDS011;18385;51.572;6.578;2023-11-18T03:26:57;55.88;;;14.90;;
31676;SDS011;18385;51.572;6.578;2023-11-18T03:29:23;60.92;;;16.02;;
31676;SDS011;18385;51.572;6.578;2023-11-18T03:31:49;59.97;;;15.07;;
31676;SDS011;18385;51.572;6.578;2023-11-18T03:34:15;51.45;;;15.27;;
31676;SDS011;18385;51.572;6.578;2023-11-18T03:36:41;73.78;;;17.98;;
31676;SDS011;18385;51.572;6.578;2023-11-18T03:39:09;64.40;;;18.58;;
31676;SDS011;18385;51.572;6.578;2023-11-18T03:41:36;63.15;;;16.70;;
31676;SDS011;18385;51.572;6.578;2023-11-18T03:44:03;67.25;;;18.00;;
31676;SDS011;18385;51.572;6.578;2023-11-18T03:46:29;61.83;;;16.95;;
31676;SDS011;18385;51.572;6.578;2023-11-18T03:51:25;58.45;;;16.65;;
31676;SDS011;18385;51.572;6.578;2023-11-18T03:53:51;49.38;;;14.23;;
31676;SDS011;18385;51.572;6.578;2023-11-18T03:56:17;51.38;;;15.15;;
31676;SDS011;18385;51.572;6.578;2023-11-18T03:58:46;56.17;;;15.27;;
31676;SDS011;18385;51.572;6.578;2023-11-18T04:01:22;58.95;;;15.52;;
31676;SDS011;18385;51.572;6.578;2023-11-18T04:03:49;55.97;;;14.80;;
31676;SDS011;18385;51.572;6.578;2023-11-18T04:06:15;67.03;;;15.65;;
31676;SDS011;18385;51.572;6.578;2023-11-18T04:08:43;61.45;;;16.65;;
31676;SDS011;18385;51.572;6.578;2023-11-18T04:11:10;66.30;;;15.85;;
31676;SDS011;18385;51.572;6.578;2023-11-18T04:13:37;51.75;;;14.82;;
31676;SDS011;18385;51.572;6.578;2023-11-18T04:16:02;43.13;;;13.02;;
31676;SDS011;18385;51.572;6.578;2023-11-18T04:18:28;52.38;;;16.15;;
31676;SDS011;18385;51.572;6.578;2023-11-18T04:20:54;54.55;;;14.80;;
31676;SDS011;18385;51.572;6.578;2023-11-18T04:23:20;54.25;;;14.55;;
31676;SDS011;18385;51.572;6.578;2023-11-18T04:25:45;49.35;;;14.98;;
31676;SDS011;18385;51.572;6.578;2023-11-18T04:28:11;61.20;;;15.65;;
31676;SDS011;18385;51.572;6.578;2023-11-18T04:30:37;51.25;;;14.40;;
31676;SDS011;18385;51.572;6.578;2023-11-18T04:33:03;54.63;;;14.60;;
31676;SDS011;18385;51.572;6.578;2023-11-18T04:35:29;61.00;;;17.20;;
31676;SDS011;18385;51.572;6.578;2023-11-18T04:37:55;64.90;;;18.35;;
31676;SDS011;18385;51.572;6.578;2023-11-18T04:40:21;63.90;;;17.60;;
31676;SDS011;18385;51.572;6.578;2023-11-18T04:42:48;55.30;;;15.23;;
31676;SDS011;18385;51.572;6.578;2023-11-18T04:45:14;66.43;;;16.63;;
31676;SDS011;18385;51.572;6.578;2023-11-18T04:47:39;67.03;;;16.80;;
31676;SDS011;18385;51.572;6.578;2023-11-18T04:50:08;67.63;;;16.95;;
31676;SDS011;18385;51.572;6.578;2023-11-18T04:52:35;61.95;;;16.50;;
31676;SDS011;18385;51.572;6.578;2023-11-18T04:55:01;56.83;;;15.88;;
31676;SDS011;18385;51.572;6.578;2023-11-18T04:57:28;68.32;;;17.73;;
31676;SDS011;18385;51.572;6.578;2023-11-18T04:59:54;80.15;;;18.60;;
31676;SDS011;18385;51.572;6.578;2023-11-18T05:02:19;62.25;;;17.70;;
31676;SDS011;18385;51.572;6.578;2023-11-18T05:04:45;75.90;;;20.73;;
31676;SDS011;18385;51.572;6.578;2023-11-18T05:07:11;77.40;;;17.98;;
31676;SDS011;18385;51.572;6.578;2023-11-18T05:09:36;73.45;;;20.33;;
31676;SDS011;18385;51.572;6.578;2023-11-18T05:12:02;66.13;;;18.95;;
31676;SDS011;18385;51.572;6.578;2023-11-18T05:14:28;69.95;;;18.80;;
31676;SDS011;18385;51.572;6.578;2023-11-18T05:16:54;66.93;;;18.98;;
31676;SDS011;18385;51.572;6.578;2023-11-18T05:19:19;68.50;;;18.13;;
31676;SDS011;18385;51.572;6.578;2023-11-18T05:21:45;68.57;;;18.73;;
31676;SDS011;18385;51.572;6.578;2023-11-18T05:24:14;63.63;;;17.65;;
31676;SDS011;18385;51.572;6.578;2023-11-18T05:26:40;56.25;;;16.67;;
31676;SDS011;18385;51.572;6.578;2023-11-18T05:29:06;61.13;;;16.58;;
31676;SDS011;18385;51.572;6.578;2023-11-18T05:31:31;53.63;;;16.08;;
31676;SDS011;18385;51.572;6.578;2023-11-18T05:33:58;60.45;;;16.10;;
31676;SDS011;18385;51.572;6.578;2023-11-18T05:36:24;56.55;;;16.27;;
31676;SDS011;18385;51.572;6.578;2023-11-18T05:38:53;60.40;;;17.37;;
31676;SDS011;18385;51.572;6.578;2023-11-18T05:41:19;51.97;;;15.73;;
31676;SDS011;18385;51.572;6.578;2023-11-18T05:43:53;52.03;;;15.25;;
31676;SDS011;18385;51.572;6.578;2023-11-18T05:46:22;54.95;;;14.55;;
31676;SDS011;18385;51.572;6.578;2023-11-18T05:48:51;44.67;;;14.27;;
31676;SDS011;18385;51.572;6.578;2023-11-18T05:51:21;41.75;;;13.10;;
31676;SDS011;18385;51.572;6.578;2023-11-18T05:53:48;49.97;;;13.82;;
31676;SDS011;18385;51.572;6.578;2023-11-18T05:56:14;45.28;;;12.75;;
31676;SDS011;18385;51.572;6.578;2023-11-18T05:58:43;39.60;;;11.93;;
31676;SDS011;18385;51.572;6.578;2023-11-18T06:01:09;37.42;;;12.38;;
31676;SDS011;18385;51.572;6.578;2023-11-18T06:03:36;44.20;;;12.95;;
31676;SDS011;18385;51.572;6.578;2023-11-18T06:06:06;37.40;;;11.80;;
31676;SDS011;18385;51.572;6.578;2023-11-18T06:08:34;46.35;;;12.40;;
31676;SDS011;18385;51.572;6.578;2023-11-18T06:11:00;40.72;;;12.35;;
31676;SDS011;18385;51.572;6.578;2023-11-18T06:13:30;41.20;;;11.43;;
31676;SDS011;18385;51.572;6.578;2023-11-18T06:15:56;42.67;;;12.60;;
31676;SDS011;18385;51.572;6.578;2023-11-18T06:18:24;37.17;;;11.77;;
31676;SDS011;18385;51.572;6.578;2023-11-18T06:20:49;37.28;;;11.35;;
31676;SDS011;18385;51.572;6.578;2023-11-18T06:23:15;35.97;;;11.13;;
31676;SDS011;18385;51.572;6.578;2023-11-18T06:25:43;35.60;;;10.63;;
31676;SDS011;18385;51.572;6.578;2023-11-18T06:28:11;33.50;;;11.10;;
31676;SDS011;18385;51.572;6.578;2023-11-18T06:30:36;34.35;;;11.23;;
31676;SDS011;18385;51.572;6.578;2023-11-18T06:33:03;28.55;;;10.60;;
31676;SDS011;18385;51.572;6.578;2023-11-18T06:35:29;39.92;;;11.60;;
31676;SDS011;18385;51.572;6.578;2023-11-18T06:37:54;32.05;;;11.10;;
31676;SDS011;18385;51.572;6.578;2023-11-18T06:40:20;32.45;;;10.93;;
31676;SDS011;18385;51.572;6.578;2023-11-18T06:42:47;38.90;;;11.05;;
31676;SDS011;18385;51.572;6.578;2023-11-18T06:45:13;32.47;;;10.75;;
31676;SDS011;18385;51.572;6.578;2023-11-18T06:47:40;30.63;;;11.45;;
31676;SDS011;18385;51.572;6.578;2023-11-18T06:50:09;32.65;;;11.77;;
31676;SDS011;18385;51.572;6.578;2023-11-18T06:52:39;35.10;;;10.60;;
31676;SDS011;18385;51.572;6.578;2023-11-18T06:55:06;30.38;;;10.40;;
31676;SDS011;18385;51.572;6.578;2023-11-18T06:57:33;33.35;;;10.48;;
31676;SDS011;18385;51.572;6.578;2023-11-18T07:00:00;34.42;;;11.70;;
31676;SDS011;18385;51.572;6.578;2023-11-18T07:02:25;35.47;;;11.60;;
31676;SDS011;18385;51.572;6.578;2023-11-18T07:04:51;35.00;;;10.75;;
31676;SDS011;18385;51.572;6.578;2023-11-18T07:07:16;34.97;;;10.50;;
31676;SDS011;18385;51.572;6.578;2023-11-18T07:09:43;31.80;;;11.02;;
31676;SDS011;18385;51.572;6.578;2023-11-18T07:12:09;37.22;;;10.85;;
31676;SDS011;18385;51.572;6.578;2023-11-18T07:14:35;31.90;;;9.48;;
31676;SDS011;18385;51.572;6.578;2023-11-18T07:17:01;35.25;;;11.05;;
31676;SDS011;18385;51.572;6.578;2023-11-18T07:19:26;32.03;;;11.77;;
31676;SDS011;18385;51.572;6.578;2023-11-18T07:21:53;34.35;;;11.10;;
31676;SDS011;18385;51.572;6.578;2023-11-18T07:24:19;32.08;;;10.88;;
31676;SDS011;18385;51.572;6.578;2023-11-18T07:26:45;34.10;;;11.40;;
31676;SDS011;18385;51.572;6.578;2023-11-18T07:29:11;35.92;;;11.27;;
31676;SDS011;18385;51.572;6.578;2023-11-18T07:31:36;27.08;;;9.77;;
31676;SDS011;18385;51.572;6.578;2023-11-18T07:34:03;27.40;;;11.05;;
31676;SDS011;18385;51.572;6.578;2023-11-18T07:36:30;28.60;;;10.52;;
31676;SDS011;18385;51.572;6.578;2023-11-18T07:38:57;26.90;;;9.77;;
31676;SDS011;18385;51.572;6.578;2023-11-18T07:41:26;32.15;;;10.77;;
31676;SDS011;18385;51.572;6.578;2023-11-18T07:43:53;27.25;;;9.55;;
31676;SDS011;18385;51.572;6.578;2023-11-18T07:46:20;27.52;;;10.00;;
31676;SDS011;18385;51.572;6.578;2023-11-18T07:48:48;30.75;;;10.27;;
31676;SDS011;18385;51.572;6.578;2023-11-18T07:51:14;30.10;;;9.77;;
31676;SDS011;18385;51.572;6.578;2023-11-18T07:53:40;36.90;;;11.27;;
31676;SDS011;18385;51.572;6.578;2023-11-18T07:56:07;28.20;;;9.82;;
31676;SDS011;18385;51.572;6.578;2023-11-18T07:58:36;31.83;;;10.33;;
31676;SDS011;18385;51.572;6.578;2023-11-18T08:01:02;29.42;;;10.02;;
31676;SDS011;18385;51.572;6.578;2023-11-18T08:03:32;35.50;;;10.98;;
31676;SDS011;18385;51.572;6.578;2023-11-18T08:05:58;26.00;;;9.77;;
31676;SDS011;18385;51.572;6.578;2023-11-18T08:08:24;30.30;;;10.77;;
31676;SDS011;18385;51.572;6.578;2023-11-18T08:10:50;26.50;;;9.65;;
31676;SDS011;18385;51.572;6.578;2023-11-18T08:13:16;29.90;;;9.73;;
31676;SDS011;18385;51.572;6.578;2023-11-18T08:15:42;30.48;;;11.10;;
31676;SDS011;18385;51.572;6.578;2023-11-18T08:18:12;32.95;;;9.75;;
31676;SDS011;18385;51.572;6.578;2023-11-18T08:20:38;29.55;;;10.60;;
31676;SDS011;18385;51.572;6.578;2023-11-18T08:23:04;26.27;;;9.85;;
31676;SDS011;18385;51.572;6.578;2023-11-18T08:25:30;28.17;;;10.00;;
31676;SDS011;18385;51.572;6.578;2023-11-18T08:27:59;30.67;;;10.27;;
31676;SDS011;18385;51.572;6.578;2023-11-18T08:30:25;25.20;;;9.10;;
31676;SDS011;18385;51.572;6.578;2023-11-18T08:32:51;28.23;;;9.27;;
31676;SDS011;18385;51.572;6.578;2023-11-18T08:35:17;28.80;;;9.75;;
31676;SDS011;18385;51.572;6.578;2023-11-18T08:37:43;27.17;;;9.38;;
31676;SDS011;18385;51.572;6.578;2023-11-18T08:40:10;25.48;;;9.75;;
31676;SDS011;18385;51.572;6.578;2023-11-18T08:42:49;26.23;;;11.10;;
31676;SDS011;18385;51.572;6.578;2023-11-18T08:45:19;25.30;;;9.52;;
31676;SDS011;18385;51.572;6.578;2023-11-18T08:47:47;19.50;;;8.23;;
31676;SDS011;18385;51.572;6.578;2023-11-18T08:50:14;25.38;;;8.93;;
31676;SDS011;18385;51.572;6.578;2023-11-18T08:52:43;26.63;;;8.90;;
31676;SDS011;18385;51.572;6.578;2023-11-18T08:55:12;23.48;;;9.18;;
31676;SDS011;18385;51.572;6.578;2023-11-18T08:57:44;20.83;;;8.82;;
31676;SDS011;18385;51.572;6.578;2023-11-18T09:00:17;22.65;;;8.52;;
31676;SDS011;18385;51.572;6.578;2023-11-18T09:03:03;23.77;;;8.45;;
31676;SDS011;18385;51.572;6.578;2023-11-18T09:05:32;24.13;;;9.00;;
31676;SDS011;18385;51.572;6.578;2023-11-18T09:07:58;21.00;;;8.18;;
31676;SDS011;18385;51.572;6.578;2023-11-18T09:10:27;22.02;;;8.70;;
31676;SDS011;18385;51.572;6.578;2023-11-18T09:12:55;23.33;;;7.55;;
31676;SDS011;18385;51.572;6.578;2023-11-18T09:15:22;21.73;;;9.25;;
31676;SDS011;18385;51.572;6.578;2023-11-18T09:17:48;24.02;;;9.02;;
31676;SDS011;18385;51.572;6.578;2023-11-18T09:20:14;19.48;;;8.30;;
31676;SDS011;18385;51.572;6.578;2023-11-18T09:22:47;21.48;;;8.13;;
31676;SDS011;18385;51.572;6.578;2023-11-18T09:25:13;21.02;;;8.15;;
31676;SDS011;18385;51.572;6.578;2023-11-18T09:27:40;20.15;;;8.75;;
31676;SDS011;18385;51.572;6.578;2023-11-18T09:30:07;23.20;;;8.85;;
31676;SDS011;18385;51.572;6.578;2023-11-18T09:32:41;19.67;;;7.72;;
31676;SDS011;18385;51.572;6.578;2023-11-18T09:35:10;19.63;;;8.27;;
31676;SDS011;18385;51.572;6.578;2023-11-18T09:37:38;22.42;;;8.45;;
31676;SDS011;18385;51.572;6.578;2023-11-18T09:40:06;18.85;;;7.80;;
31676;SDS011;18385;51.572;6.578;2023-11-18T09:42:38;18.65;;;7.43;;
31676;SDS011;18385;51.572;6.578;2023-11-18T09:45:05;18.17;;;7.45;;
31676;SDS011;18385;51.572;6.578;2023-11-18T09:47:36;19.15;;;7.20;;
31676;SDS011;18385;51.572;6.578;2023-11-18T09:50:06;17.52;;;6.82;;
31676;SDS011;18385;51.572;6.578;2023-11-18T09:52:37;20.88;;;8.73;;
31676;SDS011;18385;51.572;6.578;2023-11-18T09:55:11;22.95;;;6.88;;
31676;SDS011;18385;51.572;6.578;2023-11-18T09:57:46;16.50;;;6.68;;
31676;SDS011;18385;51.572;6.578;2023-11-18T10:00:22;15.93;;;6.93;;
31676;SDS011;18385;51.572;6.578;2023-11-18T10:02:57;15.05;;;6.68;;
31676;SDS011;18385;51.572;6.578;2023-11-18T10:05:26;19.85;;;7.65;;
31676;SDS011;18385;51.572;6.578;2023-11-18T10:07:52;15.88;;;6.10;;
31676;SDS011;18385;51.572;6.578;2023-11-18T10:10:19;17.38;;;6.80;;
31676;SDS011;18385;51.572;6.578;2023-11-18T10:12:50;14.82;;;5.97;;
31676;SDS011;18385;51.572;6.578;2023-11-18T10:15:23;14.43;;;6.18;;
31676;SDS011;18385;51.572;6.578;2023-11-18T10:17:50;17.73;;;6.70;;
31676;SDS011;18385;51.572;6.578;2023-11-18T10:23:15;15.05;;;6.43;;
31676;SDS011;18385;51.572;6.578;2023-11-18T10:28:24;16.33;;;7.07;;
31676;SDS011;18385;51.572;6.578;2023-11-18T10:30:55;15.48;;;5.78;;
31676;SDS011;18385;51.572;6.578;2023-11-18T10:33:29;13.23;;;5.50;;
31676;SDS011;18385;51.572;6.578;2023-11-18T10:35:56;11.95;;;5.65;;
31676;SDS011;18385;51.572;6.578;2023-11-18T10:38:23;13.00;;;5.22;;
31676;SDS011;18385;51.572;6.578;2023-11-18T10:40:53;12.68;;;6.00;;
31676;SDS011;18385;51.572;6.578;2023-11-18T10:43:22;11.80;;;5.60;;
31676;SDS011;18385;51.572;6.578;2023-11-18T10:46:09;13.95;;;5.30;;
31676;SDS011;18385;51.572;6.578;2023-11-18T10:48:47;11.30;;;5.32;;
31676;SDS011;18385;51.572;6.578;2023-11-18T10:51:14;10.93;;;5.05;;
31676;SDS011;18385;51.572;6.578;2023-11-18T10:53:42;12.88;;;5.50;;
31676;SDS011;18385;51.572;6.578;2023-11-18T10:56:21;16.63;;;5.15;;
31676;SDS011;18385;51.572;6.578;2023-11-18T10:59:12;13.15;;;5.43;;
31676;SDS011;18385;51.572;6.578;2023-11-18T11:01:44;12.80;;;5.47;;
31676;SDS011;18385;51.572;6.578;2023-11-18T11:06:42;11.75;;;4.93;;
31676;SDS011;18385;51.572;6.578;2023-11-18T11:09:21;15.95;;;4.70;;
31676;SDS011;18385;51.572;6.578;2023-11-18T11:14:32;16.15;;;6.60;;
31676;SDS011;18385;51.572;6.578;2023-11-18T11:17:16;17.27;;;5.70;;
31676;SDS011;18385;51.572;6.578;2023-11-18T11:20:04;15.27;;;5.40;;
31676;SDS011;18385;51.572;6.578;2023-11-18T11:22:56;14.02;;;5.47;;
31676;SDS011;18385;51.572;6.578;2023-11-18T11:28:37;16.27;;;5.20;;
31676;SDS011;18385;51.572;6.578;2023-11-18T11:31:17;15.48;;;5.97;;
31676;SDS011;18385;51.572;6.578;2023-11-18T11:33:49;14.80;;;6.05;;
31676;SDS011;18385;51.572;6.578;2023-11-18T11:36:25;15.55;;;6.47;;
31676;SDS011;18385;51.572;6.578;2023-11-18T11:39:16;11.95;;;5.35;;
31676;SDS011;18385;51.572;6.578;2023-11-18T11:41:50;16.05;;;5.63;;
31676;SDS011;18385;51.572;6.578;2023-11-18T11:46:45;12.63;;;6.00;;
31676;SDS011;18385;51.572;6.578;2023-11-18T11:49:18;15.75;;;6.93;;
31676;SDS011;18385;51.572;6.578;2023-11-18T11:54:31;12.02;;;5.25;;
31676;SDS011;18385;51.572;6.578;2023-11-18T11:57:03;11.65;;;5.68;;
31676;SDS011;18385;51.572;6.578;2023-11-18T12:02:13;10.73;;;4.97;;
31676;SDS011;18385;51.572;6.578;2023-11-18T12:04:45;12.02;;;5.25;;
31676;SDS011;18385;51.572;6.578;2023-11-18T12:09:40;13.40;;;5.82;;
31676;SDS011;18385;51.572;6.578;2023-11-18T12:12:18;31.27;;;11.80;;
31676;SDS011;18385;51.572;6.578;2023-11-18T12:14:49;10.57;;;5.38;;
31676;SDS011;18385;51.572;6.578;2023-11-18T12:17:22;15.15;;;4.97;;
31676;SDS011;18385;51.572;6.578;2023-11-18T12:19:53;12.27;;;4.93;;
31676;SDS011;18385;51.572;6.578;2023-11-18T12:22:32;10.60;;;4.88;;
31676;SDS011;18385;51.572;6.578;2023-11-18T12:25:46;12.90;;;4.50;;
31676;SDS011;18385;51.572;6.578;2023-11-18T12:28:19;15.40;;;5.68;;
31676;SDS011;18385;51.572;6.578;2023-11-18T12:30:47;14.60;;;5.80;;
31676;SDS011;18385;51.572;6.578;2023-11-18T12:33:25;11.88;;;5.93;;
31676;SDS011;18385;51.572;6.578;2023-11-18T12:36:26;17.92;;;6.75;;
31676;SDS011;18385;51.572;6.578;2023-11-18T12:42:07;12.32;;;5.47;;
31676;SDS011;18385;51.572;6.578;2023-11-18T12:47:05;11.93;;;5.32;;
31676;SDS011;18385;51.572;6.578;2023-11-18T12:49:44;13.67;;;4.83;;
31676;SDS011;18385;51.572;6.578;2023-11-18T12:52:15;12.68;;;4.85;;
31676;SDS011;18385;51.572;6.578;2023-11-18T12:54:44;9.87;;;4.93;;
31676;SDS011;18385;51.572;6.578;2023-11-18T12:57:15;11.48;;;4.72;;
31676;SDS011;18385;51.572;6.578;2023-11-18T12:59:41;13.05;;;5.15;;
31676;SDS011;18385;51.572;6.578;2023-11-18T13:02:12;12.68;;;4.72;;
31676;SDS011;18385;51.572;6.578;2023-11-18T13:04:49;9.70;;;5.05;;
31676;SDS011;18385;51.572;6.578;2023-11-18T13:07:15;11.55;;;5.05;;
31676;SDS011;18385;51.572;6.578;2023-11-18T13:09:43;13.25;;;5.20;;
31676;SDS011;18385;51.572;6.578;2023-11-18T13:12:11;12.82;;;5.30;;
31676;SDS011;18385;51.572;6.578;2023-11-18T13:14:40;11.57;;;4.75;;
31676;SDS011;18385;51.572;6.578;2023-11-18T13:17:11;13.18;;;4.88;;
31676;SDS011;18385;51.572;6.578;2023-11-18T13:19:38;15.02;;;4.70;;
31676;SDS011;18385;51.572;6.578;2023-11-18T13:22:05;9.40;;;4.85;;
31676;SDS011;18385;51.572;6.578;2023-11-18T13:24:36;9.23;;;4.53;;
31676;SDS011;18385;51.572;6.578;2023-11-18T13:27:06;9.38;;;4.15;;
31676;SDS011;18385;51.572;6.578;2023-11-18T13:29:34;8.20;;;4.32;;
31676;SDS011;18385;51.572;6.578;2023-11-18T13:32:01;9.85;;;4.47;;
31676;SDS011;18385;51.572;6.578;2023-11-18T13:34:33;14.10;;;4.60;;
31676;SDS011;18385;51.572;6.578;2023-11-18T13:37:02;8.43;;;3.55;;
31676;SDS011;18385;51.572;6.578;2023-11-18T13:41:58;6.45;;;3.45;;
31676;SDS011;18385;51.572;6.578;2023-11-18T13:44:42;8.18;;;4.03;;
31676;SDS011;18385;51.572;6.578;2023-11-18T13:47:09;16.20;;;5.82;;
31676;SDS011;18385;51.572;6.578;2023-11-18T13:49:39;11.50;;;4.53;;
31676;SDS011;18385;51.572;6.578;2023-11-18T13:52:08;11.55;;;5.13;;
31676;SDS011;18385;51.572;6.578;2023-11-18T13:54:36;6.40;;;3.60;;
31676;SDS011;18385;51.572;6.578;2023-11-18T13:57:03;12.52;;;4.57;;
31676;SDS011;18385;51.572;6.578;2023-11-18T13:59:29;13.63;;;4.22;;
31676;SDS011;18385;51.572;6.578;2023-11-18T14:01:56;6.57;;;3.38;;
31676;SDS011;18385;51.572;6.578;2023-11-18T14:04:23;6.53;;;3.60;;
31676;SDS011;18385;51.572;6.578;2023-11-18T14:06:52;9.45;;;3.50;;
31676;SDS011;18385;51.572;6.578;2023-11-18T14:09:22;11.57;;;3.25;;
31676;SDS011;18385;51.572;6.578;2023-11-18T14:11:50;5.55;;;2.85;;
31676;SDS011;18385;51.572;6.578;2023-11-18T14:14:16;8.55;;;3.30;;
31676;SDS011;18385;51.572;6.578;2023-11-18T14:16:43;10.90;;;4.38;;
31676;SDS011;18385;51.572;6.578;2023-11-18T14:19:09;25.70;;;11.18;;
31676;SDS011;18385;51.572;6.578;2023-11-18T14:21:36;38.67;;;14.68;;
31676;SDS011;18385;51.572;6.578;2023-11-18T14:24:02;25.90;;;9.45;;
31676;SDS011;18385;51.572;6.578;2023-11-18T14:26:28;16.38;;;7.68;;
31676;SDS011;18385;51.572;6.578;2023-11-18T14:28:55;19.73;;;8.77;;
31676;SDS011;18385;51.572;6.578;2023-11-18T14:31:23;15.18;;;6.90;;
31676;SDS011;18385;51.572;6.578;2023-11-18T14:33:50;13.40;;;5.05;;
31676;SDS011;18385;51.572;6.578;2023-11-18T14:36:16;12.43;;;4.80;;
31676;SDS011;18385;51.572;6.578;2023-11-18T14:38:45;10.57;;;6.03;;
31676;SDS011;18385;51.572;6.578;2023-11-18T14:41:12;10.63;;;3.70;;
31676;SDS011;18385;51.572;6.578;2023-11-18T14:43:37;9.02;;;3.50;;
31676;SDS011;18385;51.572;6.578;2023-11-18T14:46:03;10.98;;;4.07;;
31676;SDS011;18385;51.572;6.578;2023-11-18T14:48:29;12.50;;;5.18;;
31676;SDS011;18385;51.572;6.578;2023-11-18T14:50:55;10.32;;;4.80;;
31676;SDS011;18385;51.572;6.578;2023-11-18T14:53:24;17.52;;;6.88;;
31676;SDS011;18385;51.572;6.578;2023-11-18T14:55:50;10.35;;;4.90;;
31676;SDS011;18385;51.572;6.578;2023-11-18T14:58:15;15.50;;;6.63;;
31676;SDS011;18385;51.572;6.578;2023-11-18T15:00:41;13.00;;;6.40;;
31676;SDS011;18385;51.572;6.578;2023-11-18T15:03:07;8.68;;;3.75;;
31676;SDS011;18385;51.572;6.578;2023-11-18T15:05:33;20.40;;;7.18;;
31676;SDS011;18385;51.572;6.578;2023-11-18T15:07:59;16.67;;;7.82;;
31676;SDS011;18385;51.572;6.578;2023-11-18T15:10:26;10.88;;;4.32;;
31676;SDS011;18385;51.572;6.578;2023-11-18T15:12:54;8.75;;;3.85;;
31676;SDS011;18385;51.572;6.578;2023-11-18T15:15:30;10.32;;;4.05;;